sensor_id;sensor_type;location;lat;lon;timestamp;P1;durP1;ratioP1;P2;durP2;ratioP2
51238;SDS011;38154;47.548;18.828;2023-08-24T00:02:11;10.18;;;4.78;;
51238;SDS011;38154;47.548;18.828;2023-08-24T00:04:38;8.10;;;5.07;;
51238;SDS011;38154;47.548;18.828;2023-08-24T00:07:03;10.40;;;5.28;;
51238;SDS011;38154;47.548;18.828;2023-08-24T00:09:29;8.73;;;5.50;;
51238;SDS011;38154;47.548;18.828;2023-08-24T00:11:55;8.15;;;4.53;;
51238;SDS011;38154;47.548;18.828;2023-08-24T00:14:21;8.20;;;4.87;;
51238;SDS011;38154;47.548;18.828;2023-08-24T00:16:47;8.70;;;4.90;;
51238;SDS011;38154;47.548;18.828;2023-08-24T00:19:13;12.65;;;4.95;;
51238;SDS011;38154;47.548;18.828;2023-08-24T00:21:39;10.48;;;4.62;;
51238;SDS011;38154;47.548;18.828;2023-08-24T00:24:04;7.22;;;4.70;;
51238;SDS011;38154;47.548;18.828;2023-08-24T00:26:30;9.18;;;5.70;;
51238;SDS011;38154;47.548;18.828;2023-08-24T00:28:56;8.30;;;4.93;;
51238;SDS011;38154;47.548;18.828;2023-08-24T00:31:22;8.68;;;5.12;;
51238;SDS011;38154;47.548;18.828;2023-08-24T00:33:48;8.90;;;4.93;;
51238;SDS011;38154;47.548;18.828;2023-08-24T00:36:16;8.73;;;4.72;;
51238;SDS011;38154;47.548;18.828;2023-08-24T00:38:43;8.32;;;5.07;;
51238;SDS011;38154;47.548;18.828;2023-08-24T00:41:09;8.00;;;4.57;;
51238;SDS011;38154;47.548;18.828;2023-08-24T00:43:35;8.10;;;5.00;;
51238;SDS011;38154;47.548;18.828;2023-08-24T00:46:01;6.87;;;4.68;;
51238;SDS011;38154;47.548;18.828;2023-08-24T00:48:29;7.78;;;4.45;;
51238;SDS011;38154;47.548;18.828;2023-08-24T00:50:57;10.20;;;4.75;;
51238;SDS011;38154;47.548;18.828;2023-08-24T00:53:25;9.25;;;5.00;;
51238;SDS011;38154;47.548;18.828;2023-08-24T00:55:53;8.50;;;4.55;;
51238;SDS011;38154;47.548;18.828;2023-08-24T00:58:20;8.70;;;5.10;;
51238;SDS011;38154;47.548;18.828;2023-08-24T01:00:46;11.48;;;4.30;;
51238;SDS011;38154;47.548;18.828;2023-08-24T01:03:14;7.28;;;4.22;;
51238;SDS011;38154;47.548;18.828;2023-08-24T01:05:40;12.15;;;5.62;;
51238;SDS011;38154;47.548;18.828;2023-08-24T01:08:05;8.15;;;4.55;;
51238;SDS011;38154;47.548;18.828;2023-08-24T01:10:43;11.52;;;4.32;;
51238;SDS011;38154;47.548;18.828;2023-08-24T01:15:57;8.20;;;4.18;;
51238;SDS011;38154;47.548;18.828;2023-08-24T01:18:29;8.48;;;4.10;;
51238;SDS011;38154;47.548;18.828;2023-08-24T01:20:55;8.00;;;3.97;;
51238;SDS011;38154;47.548;18.828;2023-08-24T01:23:41;6.43;;;4.32;;
51238;SDS011;38154;47.548;18.828;2023-08-24T01:26:17;7.20;;;4.15;;
51238;SDS011;38154;47.548;18.828;2023-08-24T01:28:45;5.40;;;4.28;;
51238;SDS011;38154;47.548;18.828;2023-08-24T01:31:14;10.25;;;5.47;;
51238;SDS011;38154;47.548;18.828;2023-08-24T01:33:42;7.80;;;4.37;;
51238;SDS011;38154;47.548;18.828;2023-08-24T01:36:09;8.15;;;4.75;;
51238;SDS011;38154;47.548;18.828;2023-08-24T01:38:37;7.50;;;3.95;;
51238;SDS011;38154;47.548;18.828;2023-08-24T01:43:43;9.32;;;4.47;;
51238;SDS011;38154;47.548;18.828;2023-08-24T01:46:12;8.80;;;4.22;;
51238;SDS011;38154;47.548;18.828;2023-08-24T01:48:41;9.25;;;3.97;;
51238;SDS011;38154;47.548;18.828;2023-08-24T01:51:08;9.45;;;4.65;;
51238;SDS011;38154;47.548;18.828;2023-08-24T01:53:35;10.55;;;4.53;;
51238;SDS011;38154;47.548;18.828;2023-08-24T01:56:12;9.73;;;4.35;;
51238;SDS011;38154;47.548;18.828;2023-08-24T01:58:38;6.53;;;3.97;;
51238;SDS011;38154;47.548;18.828;2023-08-24T02:01:05;6.87;;;4.22;;
51238;SDS011;38154;47.548;18.828;2023-08-24T02:03:32;8.40;;;4.50;;
51238;SDS011;38154;47.548;18.828;2023-08-24T02:05:58;11.95;;;4.45;;
51238;SDS011;38154;47.548;18.828;2023-08-24T02:08:24;6.85;;;4.55;;
51238;SDS011;38154;47.548;18.828;2023-08-24T02:10:50;7.60;;;4.53;;
51238;SDS011;38154;47.548;18.828;2023-08-24T02:13:16;7.22;;;4.68;;
51238;SDS011;38154;47.548;18.828;2023-08-24T02:15:42;6.62;;;4.22;;
51238;SDS011;38154;47.548;18.828;2023-08-24T02:18:07;6.15;;;3.97;;
51238;SDS011;38154;47.548;18.828;2023-08-24T02:20:37;7.55;;;4.47;;
51238;SDS011;38154;47.548;18.828;2023-08-24T02:23:03;6.85;;;3.90;;
51238;SDS011;38154;47.548;18.828;2023-08-24T02:25:30;7.20;;;4.53;;
51238;SDS011;38154;47.548;18.828;2023-08-24T02:27:57;10.52;;;4.43;;
51238;SDS011;38154;47.548;18.828;2023-08-24T02:32:49;9.45;;;4.72;;
51238;SDS011;38154;47.548;18.828;2023-08-24T02:35:16;9.65;;;4.57;;
51238;SDS011;38154;47.548;18.828;2023-08-24T02:37:42;6.47;;;4.03;;
51238;SDS011;38154;47.548;18.828;2023-08-24T02:40:08;7.95;;;4.65;;
51238;SDS011;38154;47.548;18.828;2023-08-24T02:42:35;5.70;;;3.78;;
51238;SDS011;38154;47.548;18.828;2023-08-24T02:45:01;7.78;;;4.45;;
51238;SDS011;38154;47.548;18.828;2023-08-24T02:47:26;7.60;;;4.32;;
51238;SDS011;38154;47.548;18.828;2023-08-24T02:49:52;9.95;;;4.57;;
51238;SDS011;38154;47.548;18.828;2023-08-24T02:52:18;6.55;;;4.00;;
51238;SDS011;38154;47.548;18.828;2023-08-24T02:54:44;6.40;;;4.30;;
51238;SDS011;38154;47.548;18.828;2023-08-24T02:57:10;6.32;;;4.37;;
51238;SDS011;38154;47.548;18.828;2023-08-24T02:59:36;7.72;;;4.05;;
51238;SDS011;38154;47.548;18.828;2023-08-24T03:02:02;6.43;;;3.47;;
51238;SDS011;38154;47.548;18.828;2023-08-24T03:04:28;5.37;;;4.20;;
51238;SDS011;38154;47.548;18.828;2023-08-24T03:09:20;6.22;;;4.32;;
51238;SDS011;38154;47.548;18.828;2023-08-24T03:11:46;5.93;;;4.15;;
51238;SDS011;38154;47.548;18.828;2023-08-24T03:14:11;7.00;;;4.10;;
51238;SDS011;38154;47.548;18.828;2023-08-24T03:16:38;12.50;;;4.97;;
51238;SDS011;38154;47.548;18.828;2023-08-24T03:19:07;11.23;;;5.15;;
51238;SDS011;38154;47.548;18.828;2023-08-24T03:21:32;9.20;;;4.30;;
51238;SDS011;38154;47.548;18.828;2023-08-24T03:23:58;8.50;;;3.80;;
51238;SDS011;38154;47.548;18.828;2023-08-24T03:26:24;8.77;;;4.35;;
51238;SDS011;38154;47.548;18.828;2023-08-24T03:28:50;6.45;;;4.50;;
51238;SDS011;38154;47.548;18.828;2023-08-24T03:31:16;8.30;;;4.15;;
51238;SDS011;38154;47.548;18.828;2023-08-24T03:33:42;7.72;;;5.28;;
51238;SDS011;38154;47.548;18.828;2023-08-24T03:36:08;8.93;;;4.53;;
51238;SDS011;38154;47.548;18.828;2023-08-24T03:38:34;7.75;;;4.62;;
51238;SDS011;38154;47.548;18.828;2023-08-24T03:41:00;7.65;;;4.43;;
51238;SDS011;38154;47.548;18.828;2023-08-24T03:43:27;7.35;;;5.00;;
51238;SDS011;38154;47.548;18.828;2023-08-24T03:45:53;5.60;;;4.25;;
51238;SDS011;38154;47.548;18.828;2023-08-24T03:48:19;6.57;;;4.07;;
51238;SDS011;38154;47.548;18.828;2023-08-24T03:50:45;9.88;;;4.93;;
51238;SDS011;38154;47.548;18.828;2023-08-24T03:53:10;6.47;;;4.43;;
51238;SDS011;38154;47.548;18.828;2023-08-24T03:55:36;8.48;;;4.65;;
51238;SDS011;38154;47.548;18.828;2023-08-24T03:58:02;8.93;;;5.00;;
51238;SDS011;38154;47.548;18.828;2023-08-24T04:00:28;7.30;;;4.72;;
51238;SDS011;38154;47.548;18.828;2023-08-24T04:02:54;7.90;;;4.78;;
51238;SDS011;38154;47.548;18.828;2023-08-24T04:05:20;8.70;;;4.78;;
51238;SDS011;38154;47.548;18.828;2023-08-24T04:07:46;6.97;;;4.37;;
51238;SDS011;38154;47.548;18.828;2023-08-24T04:10:12;8.25;;;4.22;;
51238;SDS011;38154;47.548;18.828;2023-08-24T04:12:38;10.00;;;5.20;;
51238;SDS011;38154;47.548;18.828;2023-08-24T04:15:04;6.80;;;4.57;;
51238;SDS011;38154;47.548;18.828;2023-08-24T04:19:56;8.15;;;5.10;;
51238;SDS011;38154;47.548;18.828;2023-08-24T04:22:22;8.13;;;5.28;;
51238;SDS011;38154;47.548;18.828;2023-08-24T04:24:48;7.85;;;4.75;;
51238;SDS011;38154;47.548;18.828;2023-08-24T04:27:14;8.60;;;4.45;;
51238;SDS011;38154;47.548;18.828;2023-08-24T04:29:40;7.75;;;4.50;;
51238;SDS011;38154;47.548;18.828;2023-08-24T04:32:06;10.43;;;5.25;;
51238;SDS011;38154;47.548;18.828;2023-08-24T04:34:32;10.43;;;5.10;;
51238;SDS011;38154;47.548;18.828;2023-08-24T04:36:58;8.10;;;4.85;;
51238;SDS011;38154;47.548;18.828;2023-08-24T04:39:23;9.18;;;5.32;;
51238;SDS011;38154;47.548;18.828;2023-08-24T04:41:50;8.35;;;5.07;;
51238;SDS011;38154;47.548;18.828;2023-08-24T04:44:16;7.18;;;4.50;;
51238;SDS011;38154;47.548;18.828;2023-08-24T04:46:42;10.68;;;4.62;;
51238;SDS011;38154;47.548;18.828;2023-08-24T04:49:07;8.63;;;4.57;;
51238;SDS011;38154;47.548;18.828;2023-08-24T04:51:33;9.30;;;4.62;;
51238;SDS011;38154;47.548;18.828;2023-08-24T04:53:59;7.00;;;4.35;;
51238;SDS011;38154;47.548;18.828;2023-08-24T04:56:25;7.87;;;4.45;;
51238;SDS011;38154;47.548;18.828;2023-08-24T04:58:52;7.78;;;4.90;;
51238;SDS011;38154;47.548;18.828;2023-08-24T05:01:19;8.80;;;4.55;;
51238;SDS011;38154;47.548;18.828;2023-08-24T05:03:45;9.32;;;4.10;;
51238;SDS011;38154;47.548;18.828;2023-08-24T05:06:11;7.03;;;4.93;;
51238;SDS011;38154;47.548;18.828;2023-08-24T05:08:37;7.87;;;4.62;;
51238;SDS011;38154;47.548;18.828;2023-08-24T05:11:10;9.43;;;4.65;;
51238;SDS011;38154;47.548;18.828;2023-08-24T05:13:43;8.43;;;5.18;;
51238;SDS011;38154;47.548;18.828;2023-08-24T05:16:09;7.07;;;4.43;;
51238;SDS011;38154;47.548;18.828;2023-08-24T05:18:36;9.50;;;4.93;;
51238;SDS011;38154;47.548;18.828;2023-08-24T05:21:02;6.60;;;4.12;;
51238;SDS011;38154;47.548;18.828;2023-08-24T05:23:32;7.85;;;4.50;;
51238;SDS011;38154;47.548;18.828;2023-08-24T05:25:59;7.82;;;4.55;;
51238;SDS011;38154;47.548;18.828;2023-08-24T05:28:26;9.90;;;5.00;;
51238;SDS011;38154;47.548;18.828;2023-08-24T05:30:53;6.10;;;4.57;;
51238;SDS011;38154;47.548;18.828;2023-08-24T05:33:20;6.22;;;3.87;;
51238;SDS011;38154;47.548;18.828;2023-08-24T05:35:47;7.60;;;5.00;;
51238;SDS011;38154;47.548;18.828;2023-08-24T05:38:13;6.55;;;4.43;;
51238;SDS011;38154;47.548;18.828;2023-08-24T05:40:40;8.15;;;4.70;;
51238;SDS011;38154;47.548;18.828;2023-08-24T05:43:08;6.82;;;4.30;;
51238;SDS011;38154;47.548;18.828;2023-08-24T05:45:35;6.95;;;4.12;;
51238;SDS011;38154;47.548;18.828;2023-08-24T05:50:27;9.68;;;4.53;;
51238;SDS011;38154;47.548;18.828;2023-08-24T05:52:53;8.75;;;3.87;;
51238;SDS011;38154;47.548;18.828;2023-08-24T05:55:19;8.98;;;4.45;;
51238;SDS011;38154;47.548;18.828;2023-08-24T05:57:45;9.60;;;4.65;;
51238;SDS011;38154;47.548;18.828;2023-08-24T06:02:37;7.47;;;4.20;;
51238;SDS011;38154;47.548;18.828;2023-08-24T06:05:03;8.32;;;4.15;;
51238;SDS011;38154;47.548;18.828;2023-08-24T06:07:30;8.55;;;5.40;;
51238;SDS011;38154;47.548;18.828;2023-08-24T06:09:56;6.00;;;4.25;;
51238;SDS011;38154;47.548;18.828;2023-08-24T06:12:22;8.32;;;4.97;;
51238;SDS011;38154;47.548;18.828;2023-08-24T06:14:48;7.95;;;4.45;;
51238;SDS011;38154;47.548;18.828;2023-08-24T06:17:14;10.63;;;4.72;;
51238;SDS011;38154;47.548;18.828;2023-08-24T06:22:05;7.12;;;4.10;;
51238;SDS011;38154;47.548;18.828;2023-08-24T06:26:57;8.23;;;3.72;;
51238;SDS011;38154;47.548;18.828;2023-08-24T06:29:23;5.97;;;3.85;;
51238;SDS011;38154;47.548;18.828;2023-08-24T06:31:48;8.05;;;3.85;;
51238;SDS011;38154;47.548;18.828;2023-08-24T06:34:14;5.57;;;3.55;;
51238;SDS011;38154;47.548;18.828;2023-08-24T06:36:40;6.55;;;3.42;;
51238;SDS011;38154;47.548;18.828;2023-08-24T06:39:06;5.78;;;3.50;;
51238;SDS011;38154;47.548;18.828;2023-08-24T06:41:36;7.55;;;3.50;;
51238;SDS011;38154;47.548;18.828;2023-08-24T06:44:02;4.43;;;3.28;;
51238;SDS011;38154;47.548;18.828;2023-08-24T06:46:28;4.65;;;3.25;;
51238;SDS011;38154;47.548;18.828;2023-08-24T06:48:54;8.32;;;3.62;;
51238;SDS011;38154;47.548;18.828;2023-08-24T06:51:20;3.87;;;2.90;;
51238;SDS011;38154;47.548;18.828;2023-08-24T06:53:46;6.28;;;3.80;;
51238;SDS011;38154;47.548;18.828;2023-08-24T06:56:14;5.32;;;3.15;;
51238;SDS011;38154;47.548;18.828;2023-08-24T06:58:44;3.47;;;2.80;;
51238;SDS011;38154;47.548;18.828;2023-08-24T07:01:11;4.72;;;3.10;;
51238;SDS011;38154;47.548;18.828;2023-08-24T07:03:37;3.12;;;2.60;;
51238;SDS011;38154;47.548;18.828;2023-08-24T07:06:05;7.87;;;3.17;;
51238;SDS011;38154;47.548;18.828;2023-08-24T07:08:32;4.10;;;2.85;;
51238;SDS011;38154;47.548;18.828;2023-08-24T07:10:58;4.82;;;3.25;;
51238;SDS011;38154;47.548;18.828;2023-08-24T07:13:24;5.37;;;3.65;;
51238;SDS011;38154;47.548;18.828;2023-08-24T07:15:52;5.28;;;3.58;;
51238;SDS011;38154;47.548;18.828;2023-08-24T07:18:17;6.45;;;3.05;;
51238;SDS011;38154;47.548;18.828;2023-08-24T07:20:43;4.10;;;2.80;;
51238;SDS011;38154;47.548;18.828;2023-08-24T07:23:09;3.78;;;3.20;;
51238;SDS011;38154;47.548;18.828;2023-08-24T07:25:35;4.50;;;3.30;;
51238;SDS011;38154;47.548;18.828;2023-08-24T07:28:01;3.42;;;2.92;;
51238;SDS011;38154;47.548;18.828;2023-08-24T07:30:28;4.68;;;2.60;;
51238;SDS011;38154;47.548;18.828;2023-08-24T07:32:54;7.10;;;2.72;;
51238;SDS011;38154;47.548;18.828;2023-08-24T07:35:21;3.67;;;2.83;;
51238;SDS011;38154;47.548;18.828;2023-08-24T07:37:50;5.00;;;3.20;;
51238;SDS011;38154;47.548;18.828;2023-08-24T07:40:17;4.82;;;2.75;;
51238;SDS011;38154;47.548;18.828;2023-08-24T07:42:47;6.35;;;2.53;;
51238;SDS011;38154;47.548;18.828;2023-08-24T07:45:16;6.68;;;3.20;;
51238;SDS011;38154;47.548;18.828;2023-08-24T07:47:42;3.80;;;2.80;;
51238;SDS011;38154;47.548;18.828;2023-08-24T07:50:09;3.20;;;2.80;;
51238;SDS011;38154;47.548;18.828;2023-08-24T07:52:39;5.37;;;3.10;;
51238;SDS011;38154;47.548;18.828;2023-08-24T07:55:06;4.18;;;3.28;;
51238;SDS011;38154;47.548;18.828;2023-08-24T07:57:36;4.62;;;2.90;;
51238;SDS011;38154;47.548;18.828;2023-08-24T08:00:05;4.85;;;3.22;;
51238;SDS011;38154;47.548;18.828;2023-08-24T08:02:35;3.80;;;2.50;;
51238;SDS011;38154;47.548;18.828;2023-08-24T08:05:02;3.50;;;2.62;;
51238;SDS011;38154;47.548;18.828;2023-08-24T08:07:29;3.62;;;3.00;;
51238;SDS011;38154;47.548;18.828;2023-08-24T08:09:55;5.30;;;3.70;;
51238;SDS011;38154;47.548;18.828;2023-08-24T08:12:22;5.35;;;3.15;;
51238;SDS011;38154;47.548;18.828;2023-08-24T08:14:48;4.32;;;3.05;;
51238;SDS011;38154;47.548;18.828;2023-08-24T08:17:13;2.67;;;2.40;;
51238;SDS011;38154;47.548;18.828;2023-08-24T08:19:39;3.65;;;2.58;;
51238;SDS011;38154;47.548;18.828;2023-08-24T08:22:05;3.58;;;2.53;;
51238;SDS011;38154;47.548;18.828;2023-08-24T08:24:31;2.70;;;2.25;;
51238;SDS011;38154;47.548;18.828;2023-08-24T08:26:57;3.17;;;2.50;;
51238;SDS011;38154;47.548;18.828;2023-08-24T08:29:23;3.33;;;2.53;;
51238;SDS011;38154;47.548;18.828;2023-08-24T08:31:49;2.20;;;2.00;;
51238;SDS011;38154;47.548;18.828;2023-08-24T08:34:15;5.45;;;2.75;;
51238;SDS011;38154;47.548;18.828;2023-08-24T08:36:40;3.97;;;2.83;;
51238;SDS011;38154;47.548;18.828;2023-08-24T08:39:07;3.65;;;2.47;;
51238;SDS011;38154;47.548;18.828;2023-08-24T08:41:34;3.17;;;2.15;;
51238;SDS011;38154;47.548;18.828;2023-08-24T08:44:07;3.28;;;2.20;;
51238;SDS011;38154;47.548;18.828;2023-08-24T08:46:34;2.17;;;1.90;;
51238;SDS011;38154;47.548;18.828;2023-08-24T08:49:00;3.22;;;1.70;;
51238;SDS011;38154;47.548;18.828;2023-08-24T08:51:26;2.95;;;1.80;;
51238;SDS011;38154;47.548;18.828;2023-08-24T08:53:52;3.55;;;2.00;;
51238;SDS011;38154;47.548;18.828;2023-08-24T08:56:19;2.53;;;1.83;;
51238;SDS011;38154;47.548;18.828;2023-08-24T08:58:46;2.17;;;1.90;;
51238;SDS011;38154;47.548;18.828;2023-08-24T09:01:12;2.78;;;2.17;;
51238;SDS011;38154;47.548;18.828;2023-08-24T09:03:39;2.15;;;1.60;;
51238;SDS011;38154;47.548;18.828;2023-08-24T09:06:05;3.20;;;1.80;;
51238;SDS011;38154;47.548;18.828;2023-08-24T09:08:31;1.95;;;1.70;;
51238;SDS011;38154;47.548;18.828;2023-08-24T09:11:00;3.15;;;1.50;;
51238;SDS011;38154;47.548;18.828;2023-08-24T09:13:26;2.80;;;2.05;;
51238;SDS011;38154;47.548;18.828;2023-08-24T09:15:52;1.92;;;1.50;;
51238;SDS011;38154;47.548;18.828;2023-08-24T09:18:19;1.85;;;1.65;;
51238;SDS011;38154;47.548;18.828;2023-08-24T09:20:46;3.12;;;2.00;;
51238;SDS011;38154;47.548;18.828;2023-08-24T09:23:19;2.20;;;1.70;;
51238;SDS011;38154;47.548;18.828;2023-08-24T09:25:46;2.35;;;2.12;;
51238;SDS011;38154;47.548;18.828;2023-08-24T09:28:22;2.60;;;1.95;;
51238;SDS011;38154;47.548;18.828;2023-08-24T09:30:52;2.33;;;1.77;;
51238;SDS011;38154;47.548;18.828;2023-08-24T09:33:20;1.70;;;1.60;;
51238;SDS011;38154;47.548;18.828;2023-08-24T09:35:51;2.25;;;1.77;;
51238;SDS011;38154;47.548;18.828;2023-08-24T09:38:19;2.70;;;1.90;;
51238;SDS011;38154;47.548;18.828;2023-08-24T09:40:49;3.30;;;1.85;;
51238;SDS011;38154;47.548;18.828;2023-08-24T09:43:18;2.20;;;1.67;;
51238;SDS011;38154;47.548;18.828;2023-08-24T09:48:17;2.70;;;2.10;;
51238;SDS011;38154;47.548;18.828;2023-08-24T09:50:47;2.15;;;1.85;;
51238;SDS011;38154;47.548;18.828;2023-08-24T09:53:17;4.05;;;1.95;;
51238;SDS011;38154;47.548;18.828;2023-08-24T09:55:51;2.65;;;1.98;;
51238;SDS011;38154;47.548;18.828;2023-08-24T09:58:24;2.47;;;2.00;;
51238;SDS011;38154;47.548;18.828;2023-08-24T10:00:51;2.45;;;2.25;;
51238;SDS011;38154;47.548;18.828;2023-08-24T10:03:18;4.32;;;2.03;;
51238;SDS011;38154;47.548;18.828;2023-08-24T10:05:47;3.05;;;2.20;;
51238;SDS011;38154;47.548;18.828;2023-08-24T10:08:20;2.97;;;1.87;;
51238;SDS011;38154;47.548;18.828;2023-08-24T10:10:52;2.35;;;1.83;;
51238;SDS011;38154;47.548;18.828;2023-08-24T10:13:26;3.60;;;2.10;;
51238;SDS011;38154;47.548;18.828;2023-08-24T10:16:14;3.08;;;2.03;;
51238;SDS011;38154;47.548;18.828;2023-08-24T10:18:42;4.30;;;2.05;;
51238;SDS011;38154;47.548;18.828;2023-08-24T10:21:08;4.75;;;1.40;;
51238;SDS011;38154;47.548;18.828;2023-08-24T10:23:34;2.37;;;2.00;;
51238;SDS011;38154;47.548;18.828;2023-08-24T10:26:02;2.30;;;1.85;;
51238;SDS011;38154;47.548;18.828;2023-08-24T10:28:29;16.77;;;2.42;;
51238;SDS011;38154;47.548;18.828;2023-08-24T10:30:57;3.45;;;2.53;;
51238;SDS011;38154;47.548;18.828;2023-08-24T10:33:24;2.53;;;1.95;;
51238;SDS011;38154;47.548;18.828;2023-08-24T10:35:52;3.10;;;2.20;;
51238;SDS011;38154;47.548;18.828;2023-08-24T10:38:22;3.97;;;2.17;;
51238;SDS011;38154;47.548;18.828;2023-08-24T10:40:50;1.77;;;1.67;;
51238;SDS011;38154;47.548;18.828;2023-08-24T10:43:16;2.90;;;2.12;;
51238;SDS011;38154;47.548;18.828;2023-08-24T10:45:59;3.17;;;1.83;;
51238;SDS011;38154;47.548;18.828;2023-08-24T10:53:47;3.97;;;2.83;;
51238;SDS011;38154;47.548;18.828;2023-08-24T10:56:17;2.87;;;1.90;;
51238;SDS011;38154;47.548;18.828;2023-08-24T10:58:44;6.40;;;2.40;;
51238;SDS011;38154;47.548;18.828;2023-08-24T11:01:15;3.58;;;2.33;;
51238;SDS011;38154;47.548;18.828;2023-08-24T11:03:48;2.53;;;2.03;;
51238;SDS011;38154;47.548;18.828;2023-08-24T11:06:19;3.83;;;2.28;;
51238;SDS011;38154;47.548;18.828;2023-08-24T11:08:47;3.55;;;2.55;;
51238;SDS011;38154;47.548;18.828;2023-08-24T11:11:19;4.55;;;2.42;;
51238;SDS011;38154;47.548;18.828;2023-08-24T11:16:59;3.60;;;2.65;;
51238;SDS011;38154;47.548;18.828;2023-08-24T11:19:26;3.33;;;2.20;;
51238;SDS011;38154;47.548;18.828;2023-08-24T11:21:52;2.33;;;2.12;;
51238;SDS011;38154;47.548;18.828;2023-08-24T11:24:18;3.20;;;2.28;;
51238;SDS011;38154;47.548;18.828;2023-08-24T11:26:46;2.83;;;2.30;;
51238;SDS011;38154;47.548;18.828;2023-08-24T11:29:13;3.40;;;2.70;;
51238;SDS011;38154;47.548;18.828;2023-08-24T11:31:40;2.83;;;2.42;;
51238;SDS011;38154;47.548;18.828;2023-08-24T11:34:07;3.42;;;2.47;;
51238;SDS011;38154;47.548;18.828;2023-08-24T11:36:47;2.92;;;2.33;;
51238;SDS011;38154;47.548;18.828;2023-08-24T11:39:16;3.62;;;2.10;;
51238;SDS011;38154;47.548;18.828;2023-08-24T11:44:28;3.78;;;2.33;;
51238;SDS011;38154;47.548;18.828;2023-08-24T11:46:58;3.53;;;2.40;;
51238;SDS011;38154;47.548;18.828;2023-08-24T11:49:25;2.12;;;1.83;;
51238;SDS011;38154;47.548;18.828;2023-08-24T11:51:51;3.12;;;2.35;;
51238;SDS011;38154;47.548;18.828;2023-08-24T11:54:20;4.75;;;1.83;;
51238;SDS011;38154;47.548;18.828;2023-08-24T11:56:46;5.37;;;2.33;;
51238;SDS011;38154;47.548;18.828;2023-08-24T11:59:12;2.37;;;1.70;;
51238;SDS011;38154;47.548;18.828;2023-08-24T12:01:40;3.87;;;1.85;;
51238;SDS011;38154;47.548;18.828;2023-08-24T12:04:07;3.62;;;2.12;;
51238;SDS011;38154;47.548;18.828;2023-08-24T12:06:33;2.55;;;1.92;;
51238;SDS011;38154;47.548;18.828;2023-08-24T12:08:59;2.10;;;1.87;;
51238;SDS011;38154;47.548;18.828;2023-08-24T12:11:25;2.67;;;1.83;;
51238;SDS011;38154;47.548;18.828;2023-08-24T12:13:53;4.57;;;2.03;;
51238;SDS011;38154;47.548;18.828;2023-08-24T12:16:20;4.07;;;2.12;;
51238;SDS011;38154;47.548;18.828;2023-08-24T12:18:54;3.85;;;2.08;;
51238;SDS011;38154;47.548;18.828;2023-08-24T12:21:22;2.25;;;1.75;;
51238;SDS011;38154;47.548;18.828;2023-08-24T12:23:58;1.95;;;1.80;;
51238;SDS011;38154;47.548;18.828;2023-08-24T12:26:25;2.25;;;1.90;;
51238;SDS011;38154;47.548;18.828;2023-08-24T12:28:52;2.10;;;1.90;;
51238;SDS011;38154;47.548;18.828;2023-08-24T12:31:25;3.95;;;2.22;;
51238;SDS011;38154;47.548;18.828;2023-08-24T12:34:02;3.00;;;2.00;;
51238;SDS011;38154;47.548;18.828;2023-08-24T12:36:32;3.08;;;2.15;;
51238;SDS011;38154;47.548;18.828;2023-08-24T12:39:01;3.75;;;2.53;;
51238;SDS011;38154;47.548;18.828;2023-08-24T12:41:29;4.78;;;2.05;;
51238;SDS011;38154;47.548;18.828;2023-08-24T12:43:55;3.12;;;2.40;;
51238;SDS011;38154;47.548;18.828;2023-08-24T12:46:21;7.75;;;2.70;;
51238;SDS011;38154;47.548;18.828;2023-08-24T12:48:49;3.58;;;2.30;;
51238;SDS011;38154;47.548;18.828;2023-08-24T12:51:15;5.47;;;1.85;;
51238;SDS011;38154;47.548;18.828;2023-08-24T12:53:42;4.25;;;2.35;;
51238;SDS011;38154;47.548;18.828;2023-08-24T12:56:08;3.47;;;2.47;;
51238;SDS011;38154;47.548;18.828;2023-08-24T12:58:34;3.80;;;2.70;;
51238;SDS011;38154;47.548;18.828;2023-08-24T13:01:00;3.10;;;2.40;;
51238;SDS011;38154;47.548;18.828;2023-08-24T13:03:26;2.85;;;2.00;;
51238;SDS011;38154;47.548;18.828;2023-08-24T13:05:52;5.72;;;2.47;;
51238;SDS011;38154;47.548;18.828;2023-08-24T13:08:18;3.78;;;2.17;;
51238;SDS011;38154;47.548;18.828;2023-08-24T13:10:43;3.10;;;2.37;;
51238;SDS011;38154;47.548;18.828;2023-08-24T13:13:09;3.95;;;2.47;;
51238;SDS011;38154;47.548;18.828;2023-08-24T13:15:35;3.33;;;2.03;;
51238;SDS011;38154;47.548;18.828;2023-08-24T13:18:01;5.75;;;2.12;;
51238;SDS011;38154;47.548;18.828;2023-08-24T13:20:27;3.20;;;2.35;;
51238;SDS011;38154;47.548;18.828;2023-08-24T13:22:53;3.75;;;2.58;;
51238;SDS011;38154;47.548;18.828;2023-08-24T13:25:19;2.40;;;2.03;;
51238;SDS011;38154;47.548;18.828;2023-08-24T13:27:45;4.35;;;2.30;;
51238;SDS011;38154;47.548;18.828;2023-08-24T13:30:11;3.87;;;2.70;;
51238;SDS011;38154;47.548;18.828;2023-08-24T13:32:37;5.37;;;2.33;;
51238;SDS011;38154;47.548;18.828;2023-08-24T13:35:04;2.53;;;2.12;;
51238;SDS011;38154;47.548;18.828;2023-08-24T13:37:31;3.87;;;2.08;;
51238;SDS011;38154;47.548;18.828;2023-08-24T13:39:58;4.03;;;2.35;;
51238;SDS011;38154;47.548;18.828;2023-08-24T13:42:24;5.50;;;2.83;;
51238;SDS011;38154;47.548;18.828;2023-08-24T13:44:50;5.55;;;2.50;;
51238;SDS011;38154;47.548;18.828;2023-08-24T13:47:16;4.60;;;2.08;;
51238;SDS011;38154;47.548;18.828;2023-08-24T13:49:42;2.70;;;2.30;;
51238;SDS011;38154;47.548;18.828;2023-08-24T13:52:08;3.30;;;2.28;;
51238;SDS011;38154;47.548;18.828;2023-08-24T13:54:34;4.53;;;2.33;;
51238;SDS011;38154;47.548;18.828;2023-08-24T13:57:00;3.58;;;2.22;;
51238;SDS011;38154;47.548;18.828;2023-08-24T13:59:27;3.00;;;1.95;;
51238;SDS011;38154;47.548;18.828;2023-08-24T14:01:53;2.33;;;2.12;;
51238;SDS011;38154;47.548;18.828;2023-08-24T14:04:18;2.87;;;2.37;;
51238;SDS011;38154;47.548;18.828;2023-08-24T14:06:45;5.90;;;2.70;;
51238;SDS011;38154;47.548;18.828;2023-08-24T14:09:11;3.45;;;2.50;;
51238;SDS011;38154;47.548;18.828;2023-08-24T14:11:36;3.05;;;2.33;;
51238;SDS011;38154;47.548;18.828;2023-08-24T14:14:02;6.75;;;2.50;;
51238;SDS011;38154;47.548;18.828;2023-08-24T14:16:28;3.80;;;2.00;;
51238;SDS011;38154;47.548;18.828;2023-08-24T14:18:54;4.10;;;2.37;;
51238;SDS011;38154;47.548;18.828;2023-08-24T14:21:20;3.50;;;2.12;;
51238;SDS011;38154;47.548;18.828;2023-08-24T14:23:46;4.87;;;2.15;;
51238;SDS011;38154;47.548;18.828;2023-08-24T14:26:12;3.15;;;2.40;;
51238;SDS011;38154;47.548;18.828;2023-08-24T14:28:57;2.70;;;2.20;;
51238;SDS011;38154;47.548;18.828;2023-08-24T14:31:24;3.12;;;2.10;;
51238;SDS011;38154;47.548;18.828;2023-08-24T14:33:52;2.10;;;1.90;;
51238;SDS011;38154;47.548;18.828;2023-08-24T14:36:18;3.53;;;2.35;;
51238;SDS011;38154;47.548;18.828;2023-08-24T14:38:46;5.50;;;2.30;;
51238;SDS011;38154;47.548;18.828;2023-08-24T14:41:13;4.05;;;2.20;;
51238;SDS011;38154;47.548;18.828;2023-08-24T14:43:39;3.90;;;2.60;;
51238;SDS011;38154;47.548;18.828;2023-08-24T14:46:05;2.58;;;1.83;;
51238;SDS011;38154;47.548;18.828;2023-08-24T14:48:32;2.97;;;2.08;;
51238;SDS011;38154;47.548;18.828;2023-08-24T14:50:59;2.97;;;2.12;;
51238;SDS011;38154;47.548;18.828;2023-08-24T14:53:25;2.97;;;2.45;;
51238;SDS011;38154;47.548;18.828;2023-08-24T14:55:55;4.40;;;2.15;;
51238;SDS011;38154;47.548;18.828;2023-08-24T14:58:22;2.17;;;1.98;;
51238;SDS011;38154;47.548;18.828;2023-08-24T15:00:49;4.72;;;2.15;;
51238;SDS011;38154;47.548;18.828;2023-08-24T15:03:16;3.95;;;1.70;;
51238;SDS011;38154;47.548;18.828;2023-08-24T15:05:43;3.17;;;2.10;;
51238;SDS011;38154;47.548;18.828;2023-08-24T15:08:10;3.80;;;2.35;;
51238;SDS011;38154;47.548;18.828;2023-08-24T15:10:37;4.28;;;2.58;;